To NAV CANADA Home Page Login to a new session Search on AWWS site Feedback and Comments Disclaimer Vers la page française équivalente Tips FAQ What's new on the site To the Forecasts and Observations / NOTAM section To "File a Flight Plan" website Publications and other links Update of the User's profile FIC Telephone Numbers My Weather Data Folder Route Weather Data Regional Weather Data Local Weather Data To the Forecasts and Observations / NOTAM section
Request Generated 04/23/2014 at 14:20:53 UTC . Weather information available at that time is displayed.

METAR/TAF

COLD LAKE/GROUP CAPTAIN R.W. MCNAIR/AB    

METAR CYOD 231400Z 09018G25KT 15SM OVC130 07/M00 A2954 RMK AC8 SLP016=
METAR CYOD 231300Z 09018G24KT 15SM OVC100 07/00 A2955 RMK AC8 SLP019=
METAR CYOD 231200Z 10017G25KT 15SM OVC100 07/01 A2956 RMK AC8 SLP022=

TAF CYOD 231130Z 2312/2412 10015G25KT P6SM SCT040 OVC100
FM231500 10020G30KT P6SM BKN040 OVC100 TEMPO 2315/2318 P6SM -SHRA
OVC040
BECMG 2316/2318 10030G40KT
FM231800 10030G40KT 6SM -RA BR SCT015 OVC025 TEMPO 2318/2402 3SM
-RA BR OVC015
BECMG 2400/2402 10015G25KT
FM240200 10015G25KT 2SM -RA BR OVC008 TEMPO 2402/2412 6SM -RA BR
SCT008 OVC020
RMK NXT FCST BY 231500Z=
Your time UTC time
Weather data provided by Environment Canada and NAV CANADA